Frankfort, Maine
Current Conditions -  °F | °C
As of 11:53 PM on Monday 22 Dec 2014 (Local Time) from KBGR Reporting Station
Overcast Overcast  
Wind Chill: 33°   Ceiling: 5000
Heat Index: 33°   Visibility: 10mi
Dew Point: 31°   Wind: 3mph
Humidity: 92%   Direction: 40°NE
Pressure: 30.39"   Gusts: NA
Location:  44.61°N, 68.88°W
Report Text: KBGR 230453Z 04003KT 10SM OVC050 01/M01 A3039 RMK AO2 SNE16 SLP292 P0000 T00061006 400171067
Loading
Personal Weather Stations






























Interactive Weather Map New forecast layout! Learn more

10-Day Weather Forecast

Advertisements
Track Severe Weather on mobile